sensor_id;sensor_type;location;lat;lon;timestamp;P1;durP1;ratioP1;P2;durP2;ratioP2
64199;SDS011;50516;52.272;5.136;2022-09-30T00:02:18;4.55;;;3.05;;
64199;SDS011;50516;52.272;5.136;2022-09-30T00:04:45;7.13;;;3.78;;
64199;SDS011;50516;52.272;5.136;2022-09-30T00:07:11;5.82;;;3.00;;
64199;SDS011;50516;52.272;5.136;2022-09-30T00:09:36;5.30;;;2.97;;
64199;SDS011;50516;52.272;5.136;2022-09-30T00:12:02;5.70;;;3.70;;
64199;SDS011;50516;52.272;5.136;2022-09-30T00:14:27;5.30;;;2.78;;
64199;SDS011;50516;52.272;5.136;2022-09-30T00:16:53;6.30;;;2.88;;
64199;SDS011;50516;52.272;5.136;2022-09-30T00:19:18;6.53;;;2.50;;
64199;SDS011;50516;52.272;5.136;2022-09-30T00:21:44;4.82;;;3.00;;
64199;SDS011;50516;52.272;5.136;2022-09-30T00:24:09;3.95;;;2.58;;
64199;SDS011;50516;52.272;5.136;2022-09-30T00:26:35;6.75;;;2.67;;
64199;SDS011;50516;52.272;5.136;2022-09-30T00:29:00;4.07;;;2.92;;
64199;SDS011;50516;52.272;5.136;2022-09-30T00:31:28;4.57;;;2.90;;
64199;SDS011;50516;52.272;5.136;2022-09-30T00:33:56;3.88;;;2.67;;
64199;SDS011;50516;52.272;5.136;2022-09-30T00:36:53;4.57;;;2.72;;
64199;SDS011;50516;52.272;5.136;2022-09-30T00:39:18;4.57;;;3.00;;
64199;SDS011;50516;52.272;5.136;2022-09-30T00:41:47;3.15;;;2.38;;
64199;SDS011;50516;52.272;5.136;2022-09-30T00:50:01;3.00;;;2.22;;
64199;SDS011;50516;52.272;5.136;2022-09-30T00:52:30;3.50;;;2.58;;
64199;SDS011;50516;52.272;5.136;2022-09-30T00:54:58;5.15;;;3.13;;
64199;SDS011;50516;52.272;5.136;2022-09-30T00:57:27;4.82;;;2.83;;
64199;SDS011;50516;52.272;5.136;2022-09-30T00:59:53;3.95;;;2.60;;
64199;SDS011;50516;52.272;5.136;2022-09-30T01:02:19;6.38;;;2.90;;
64199;SDS011;50516;52.272;5.136;2022-09-30T01:04:44;3.63;;;2.60;;
64199;SDS011;50516;52.272;5.136;2022-09-30T01:07:10;6.03;;;2.88;;
64199;SDS011;50516;52.272;5.136;2022-09-30T01:09:39;6.53;;;2.80;;
64199;SDS011;50516;52.272;5.136;2022-09-30T01:12:08;4.20;;;2.80;;
64199;SDS011;50516;52.272;5.136;2022-09-30T01:14:38;8.90;;;2.80;;
64199;SDS011;50516;52.272;5.136;2022-09-30T01:20:08;4.70;;;3.03;;
64199;SDS011;50516;52.272;5.136;2022-09-30T01:22:57;4.65;;;3.22;;
64199;SDS011;50516;52.272;5.136;2022-09-30T01:28:32;4.95;;;2.97;;
64199;SDS011;50516;52.272;5.136;2022-09-30T01:34:12;6.30;;;3.42;;
64199;SDS011;50516;52.272;5.136;2022-09-30T01:39:25;6.63;;;3.20;;
64199;SDS011;50516;52.272;5.136;2022-09-30T01:53:14;6.53;;;3.13;;
64199;SDS011;50516;52.272;5.136;2022-09-30T01:55:21;4.97;;;3.00;;
64199;SDS011;50516;52.272;5.136;2022-09-30T02:00:31;8.90;;;3.13;;
64199;SDS011;50516;52.272;5.136;2022-09-30T02:03:06;6.05;;;3.20;;
64199;SDS011;50516;52.272;5.136;2022-09-30T02:05:39;3.83;;;2.78;;
64199;SDS011;50516;52.272;5.136;2022-09-30T02:08:09;5.43;;;3.25;;
64199;SDS011;50516;52.272;5.136;2022-09-30T02:10:44;4.47;;;3.33;;
64199;SDS011;50516;52.272;5.136;2022-09-30T02:13:18;7.55;;;3.90;;
64199;SDS011;50516;52.272;5.136;2022-09-30T02:15:58;4.65;;;3.25;;
64199;SDS011;50516;52.272;5.136;2022-09-30T02:18:37;9.07;;;3.85;;
64199;SDS011;50516;52.272;5.136;2022-09-30T02:21:07;6.15;;;3.75;;
64199;SDS011;50516;52.272;5.136;2022-09-30T02:23:38;5.75;;;3.60;;
64199;SDS011;50516;52.272;5.136;2022-09-30T02:26:12;6.40;;;3.92;;
64199;SDS011;50516;52.272;5.136;2022-09-30T02:28:43;6.40;;;4.25;;
64199;SDS011;50516;52.272;5.136;2022-09-30T02:31:13;5.43;;;4.07;;
64199;SDS011;50516;52.272;5.136;2022-09-30T02:33:52;6.95;;;4.25;;
64199;SDS011;50516;52.272;5.136;2022-09-30T02:36:30;5.55;;;3.60;;
64199;SDS011;50516;52.272;5.136;2022-09-30T02:42:01;6.15;;;4.35;;
64199;SDS011;50516;52.272;5.136;2022-09-30T02:44:33;8.40;;;4.55;;
64199;SDS011;50516;52.272;5.136;2022-09-30T02:47:04;6.57;;;4.32;;
64199;SDS011;50516;52.272;5.136;2022-09-30T02:49:39;7.75;;;4.40;;
64199;SDS011;50516;52.272;5.136;2022-09-30T02:52:23;5.60;;;4.22;;
64199;SDS011;50516;52.272;5.136;2022-09-30T03:00:12;7.32;;;5.28;;
64199;SDS011;50516;52.272;5.136;2022-09-30T03:02:39;5.78;;;4.85;;
64199;SDS011;50516;52.272;5.136;2022-09-30T03:05:05;6.75;;;4.80;;
64199;SDS011;50516;52.272;5.136;2022-09-30T03:07:31;7.88;;;4.85;;
64199;SDS011;50516;52.272;5.136;2022-09-30T03:09:58;6.97;;;4.78;;
64199;SDS011;50516;52.272;5.136;2022-09-30T03:15:42;8.38;;;4.93;;
64199;SDS011;50516;52.272;5.136;2022-09-30T03:21:24;8.23;;;4.70;;
64199;SDS011;50516;52.272;5.136;2022-09-30T03:32:29;6.57;;;4.65;;
64199;SDS011;50516;52.272;5.136;2022-09-30T03:35:11;9.02;;;4.50;;
64199;SDS011;50516;52.272;5.136;2022-09-30T03:38:21;6.88;;;5.18;;
64199;SDS011;50516;52.272;5.136;2022-09-30T03:40:35;6.05;;;4.35;;
64199;SDS011;50516;52.272;5.136;2022-09-30T03:43:07;8.82;;;5.70;;
64199;SDS011;50516;52.272;5.136;2022-09-30T03:46:17;6.88;;;4.63;;
64199;SDS011;50516;52.272;5.136;2022-09-30T03:48:40;8.80;;;5.38;;
64199;SDS011;50516;52.272;5.136;2022-09-30T03:51:07;9.07;;;4.68;;
64199;SDS011;50516;52.272;5.136;2022-09-30T03:53:39;7.32;;;4.88;;
64199;SDS011;50516;52.272;5.136;2022-09-30T03:56:06;7.22;;;4.95;;
64199;SDS011;50516;52.272;5.136;2022-09-30T03:58:31;7.85;;;5.40;;
64199;SDS011;50516;52.272;5.136;2022-09-30T04:00:58;6.93;;;4.80;;
64199;SDS011;50516;52.272;5.136;2022-09-30T04:03:24;9.23;;;5.03;;
64199;SDS011;50516;52.272;5.136;2022-09-30T04:05:51;7.53;;;5.30;;
64199;SDS011;50516;52.272;5.136;2022-09-30T04:08:17;8.00;;;5.95;;
64199;SDS011;50516;52.272;5.136;2022-09-30T04:10:42;8.57;;;5.63;;
64199;SDS011;50516;52.272;5.136;2022-09-30T04:13:08;7.43;;;5.18;;
64199;SDS011;50516;52.272;5.136;2022-09-30T04:15:35;7.10;;;4.97;;
64199;SDS011;50516;52.272;5.136;2022-09-30T04:18:02;10.05;;;5.90;;
64199;SDS011;50516;52.272;5.136;2022-09-30T04:20:28;8.70;;;6.03;;
64199;SDS011;50516;52.272;5.136;2022-09-30T04:23:01;8.50;;;6.07;;
64199;SDS011;50516;52.272;5.136;2022-09-30T04:25:27;10.30;;;6.13;;
64199;SDS011;50516;52.272;5.136;2022-09-30T04:27:53;7.80;;;5.68;;
64199;SDS011;50516;52.272;5.136;2022-09-30T04:30:18;10.10;;;5.95;;
64199;SDS011;50516;52.272;5.136;2022-09-30T04:32:44;9.48;;;5.82;;
64199;SDS011;50516;52.272;5.136;2022-09-30T04:35:12;10.25;;;6.53;;
64199;SDS011;50516;52.272;5.136;2022-09-30T04:37:42;10.20;;;5.72;;
64199;SDS011;50516;52.272;5.136;2022-09-30T04:40:09;8.55;;;6.70;;
64199;SDS011;50516;52.272;5.136;2022-09-30T04:42:36;9.10;;;6.70;;
64199;SDS011;50516;52.272;5.136;2022-09-30T04:45:03;10.20;;;6.50;;
64199;SDS011;50516;52.272;5.136;2022-09-30T04:47:29;9.82;;;6.72;;
64199;SDS011;50516;52.272;5.136;2022-09-30T04:49:55;11.80;;;6.50;;
64199;SDS011;50516;52.272;5.136;2022-09-30T04:52:21;8.18;;;6.43;;
64199;SDS011;50516;52.272;5.136;2022-09-30T04:54:47;8.45;;;6.50;;
64199;SDS011;50516;52.272;5.136;2022-09-30T04:57:12;10.23;;;6.50;;
64199;SDS011;50516;52.272;5.136;2022-09-30T04:59:38;10.57;;;7.35;;
64199;SDS011;50516;52.272;5.136;2022-09-30T05:02:03;9.73;;;6.07;;
64199;SDS011;50516;52.272;5.136;2022-09-30T05:04:29;9.68;;;6.90;;
64199;SDS011;50516;52.272;5.136;2022-09-30T05:06:55;9.68;;;6.50;;
64199;SDS011;50516;52.272;5.136;2022-09-30T05:09:20;10.80;;;6.55;;
64199;SDS011;50516;52.272;5.136;2022-09-30T05:11:46;10.00;;;6.72;;
64199;SDS011;50516;52.272;5.136;2022-09-30T05:14:11;10.27;;;7.25;;
64199;SDS011;50516;52.272;5.136;2022-09-30T05:16:36;10.27;;;7.07;;
64199;SDS011;50516;52.272;5.136;2022-09-30T05:19:02;8.73;;;6.85;;
64199;SDS011;50516;52.272;5.136;2022-09-30T05:21:27;10.38;;;6.97;;
64199;SDS011;50516;52.272;5.136;2022-09-30T05:23:53;10.00;;;7.35;;
64199;SDS011;50516;52.272;5.136;2022-09-30T05:26:18;10.38;;;7.38;;
64199;SDS011;50516;52.272;5.136;2022-09-30T05:28:44;11.73;;;7.43;;
64199;SDS011;50516;52.272;5.136;2022-09-30T05:31:10;11.05;;;7.20;;
64199;SDS011;50516;52.272;5.136;2022-09-30T05:33:37;13.45;;;8.25;;
64199;SDS011;50516;52.272;5.136;2022-09-30T05:36:06;10.27;;;7.38;;
64199;SDS011;50516;52.272;5.136;2022-09-30T05:38:33;9.00;;;6.95;;
64199;SDS011;50516;52.272;5.136;2022-09-30T05:41:04;11.43;;;7.47;;
64199;SDS011;50516;52.272;5.136;2022-09-30T05:43:31;10.40;;;7.35;;
64199;SDS011;50516;52.272;5.136;2022-09-30T05:45:56;13.05;;;8.88;;
64199;SDS011;50516;52.272;5.136;2022-09-30T05:48:22;10.88;;;8.00;;
64199;SDS011;50516;52.272;5.136;2022-09-30T05:50:52;11.98;;;8.27;;
64199;SDS011;50516;52.272;5.136;2022-09-30T05:53:19;10.57;;;7.50;;
64199;SDS011;50516;52.272;5.136;2022-09-30T05:55:45;9.82;;;7.60;;
64199;SDS011;50516;52.272;5.136;2022-09-30T05:58:14;14.52;;;8.48;;
64199;SDS011;50516;52.272;5.136;2022-09-30T06:00:43;10.43;;;8.43;;
64199;SDS011;50516;52.272;5.136;2022-09-30T06:03:10;10.20;;;7.28;;
64199;SDS011;50516;52.272;5.136;2022-09-30T06:05:36;12.23;;;8.80;;
64199;SDS011;50516;52.272;5.136;2022-09-30T06:08:01;13.38;;;8.15;;
64199;SDS011;50516;52.272;5.136;2022-09-30T06:10:28;12.50;;;9.07;;
64199;SDS011;50516;52.272;5.136;2022-09-30T06:12:53;12.13;;;9.40;;
64199;SDS011;50516;52.272;5.136;2022-09-30T06:15:23;13.38;;;8.25;;
64199;SDS011;50516;52.272;5.136;2022-09-30T06:17:52;10.18;;;7.95;;
64199;SDS011;50516;52.272;5.136;2022-09-30T06:20:18;14.15;;;8.15;;
64199;SDS011;50516;52.272;5.136;2022-09-30T06:22:43;12.18;;;8.68;;
64199;SDS011;50516;52.272;5.136;2022-09-30T06:25:09;12.35;;;8.90;;
64199;SDS011;50516;52.272;5.136;2022-09-30T06:27:35;12.15;;;8.80;;
64199;SDS011;50516;52.272;5.136;2022-09-30T06:30:02;12.00;;;9.20;;
64199;SDS011;50516;52.272;5.136;2022-09-30T06:32:28;13.27;;;9.18;;
64199;SDS011;50516;52.272;5.136;2022-09-30T06:34:54;11.52;;;9.10;;
64199;SDS011;50516;52.272;5.136;2022-09-30T06:37:20;12.43;;;9.40;;
64199;SDS011;50516;52.272;5.136;2022-09-30T06:39:47;15.65;;;10.02;;
64199;SDS011;50516;52.272;5.136;2022-09-30T06:42:13;13.07;;;9.60;;
64199;SDS011;50516;52.272;5.136;2022-09-30T06:44:40;15.90;;;11.43;;
64199;SDS011;50516;52.272;5.136;2022-09-30T06:47:06;24.08;;;11.50;;
64199;SDS011;50516;52.272;5.136;2022-09-30T06:49:32;14.25;;;10.57;;
64199;SDS011;50516;52.272;5.136;2022-09-30T06:51:58;16.88;;;10.98;;
64199;SDS011;50516;52.272;5.136;2022-09-30T06:54:25;19.23;;;11.18;;
64199;SDS011;50516;52.272;5.136;2022-09-30T06:56:50;16.10;;;10.80;;
64199;SDS011;50516;52.272;5.136;2022-09-30T06:59:16;17.60;;;10.65;;
64199;SDS011;50516;52.272;5.136;2022-09-30T07:01:42;15.57;;;10.80;;
64199;SDS011;50516;52.272;5.136;2022-09-30T07:04:09;14.85;;;10.82;;
64199;SDS011;50516;52.272;5.136;2022-09-30T07:06:35;13.68;;;11.13;;
64199;SDS011;50516;52.272;5.136;2022-09-30T07:09:02;14.43;;;10.52;;
64199;SDS011;50516;52.272;5.136;2022-09-30T07:11:28;19.00;;;12.15;;
64199;SDS011;50516;52.272;5.136;2022-09-30T07:13:53;15.15;;;10.40;;
64199;SDS011;50516;52.272;5.136;2022-09-30T07:16:19;16.48;;;10.98;;
64199;SDS011;50516;52.272;5.136;2022-09-30T07:18:49;15.07;;;10.70;;
64199;SDS011;50516;52.272;5.136;2022-09-30T07:21:16;19.92;;;10.80;;
64199;SDS011;50516;52.272;5.136;2022-09-30T07:23:42;17.60;;;10.55;;
64199;SDS011;50516;52.272;5.136;2022-09-30T07:26:11;15.45;;;10.88;;
64199;SDS011;50516;52.272;5.136;2022-09-30T07:28:38;15.35;;;9.90;;
64199;SDS011;50516;52.272;5.136;2022-09-30T07:33:59;17.13;;;10.02;;
64199;SDS011;50516;52.272;5.136;2022-09-30T07:36:25;11.50;;;9.85;;
64199;SDS011;50516;52.272;5.136;2022-09-30T07:38:56;13.30;;;10.27;;
64199;SDS011;50516;52.272;5.136;2022-09-30T07:41:23;15.32;;;10.07;;
64199;SDS011;50516;52.272;5.136;2022-09-30T07:43:51;15.05;;;9.98;;
64199;SDS011;50516;52.272;5.136;2022-09-30T07:46:20;15.70;;;9.55;;
64199;SDS011;50516;52.272;5.136;2022-09-30T07:48:51;14.98;;;9.27;;
64199;SDS011;50516;52.272;5.136;2022-09-30T07:53:52;12.80;;;9.85;;
64199;SDS011;50516;52.272;5.136;2022-09-30T07:56:20;12.82;;;9.90;;
64199;SDS011;50516;52.272;5.136;2022-09-30T07:58:47;14.52;;;9.45;;
64199;SDS011;50516;52.272;5.136;2022-09-30T08:01:13;12.98;;;9.95;;
64199;SDS011;50516;52.272;5.136;2022-09-30T08:03:41;14.75;;;9.32;;
64199;SDS011;50516;52.272;5.136;2022-09-30T08:06:09;11.68;;;8.77;;
64199;SDS011;50516;52.272;5.136;2022-09-30T08:08:37;11.63;;;8.80;;
64199;SDS011;50516;52.272;5.136;2022-09-30T08:11:04;14.20;;;9.93;;
64199;SDS011;50516;52.272;5.136;2022-09-30T08:13:30;13.93;;;8.88;;
64199;SDS011;50516;52.272;5.136;2022-09-30T08:15:55;14.45;;;10.05;;
64199;SDS011;50516;52.272;5.136;2022-09-30T08:18:21;13.77;;;9.00;;
64199;SDS011;50516;52.272;5.136;2022-09-30T08:20:46;11.82;;;7.78;;
64199;SDS011;50516;52.272;5.136;2022-09-30T08:23:12;13.82;;;9.73;;
64199;SDS011;50516;52.272;5.136;2022-09-30T08:25:37;15.55;;;10.60;;
64199;SDS011;50516;52.272;5.136;2022-09-30T08:28:02;12.60;;;8.93;;
64199;SDS011;50516;52.272;5.136;2022-09-30T08:30:28;15.80;;;9.35;;
64199;SDS011;50516;52.272;5.136;2022-09-30T08:32:55;12.73;;;9.10;;
64199;SDS011;50516;52.272;5.136;2022-09-30T08:35:22;13.82;;;9.18;;
64199;SDS011;50516;52.272;5.136;2022-09-30T08:37:47;11.73;;;9.07;;
64199;SDS011;50516;52.272;5.136;2022-09-30T08:40:33;13.27;;;8.63;;
64199;SDS011;50516;52.272;5.136;2022-09-30T08:43:10;16.55;;;9.43;;
64199;SDS011;50516;52.272;5.136;2022-09-30T08:49:35;13.20;;;8.40;;
64199;SDS011;50516;52.272;5.136;2022-09-30T08:52:25;11.73;;;8.73;;
64199;SDS011;50516;52.272;5.136;2022-09-30T08:55:17;11.52;;;9.75;;
64199;SDS011;50516;52.272;5.136;2022-09-30T08:57:46;13.20;;;8.73;;
64199;SDS011;50516;52.272;5.136;2022-09-30T09:00:13;16.65;;;8.73;;
64199;SDS011;50516;52.272;5.136;2022-09-30T09:02:45;11.93;;;8.77;;
64199;SDS011;50516;52.272;5.136;2022-09-30T09:05:23;14.32;;;10.88;;
64199;SDS011;50516;52.272;5.136;2022-09-30T09:14:14;12.52;;;9.73;;
64199;SDS011;50516;52.272;5.136;2022-09-30T09:22:35;15.57;;;10.32;;
64199;SDS011;50516;52.272;5.136;2022-09-30T09:25:02;11.07;;;9.40;;
64199;SDS011;50516;52.272;5.136;2022-09-30T09:27:47;10.88;;;8.40;;
64199;SDS011;50516;52.272;5.136;2022-09-30T09:30:14;11.98;;;8.95;;
64199;SDS011;50516;52.272;5.136;2022-09-30T09:32:44;14.00;;;9.45;;
64199;SDS011;50516;52.272;5.136;2022-09-30T09:35:19;12.20;;;8.18;;
64199;SDS011;50516;52.272;5.136;2022-09-30T09:43:54;12.00;;;8.52;;
64199;SDS011;50516;52.272;5.136;2022-09-30T09:46:29;11.15;;;7.88;;
64199;SDS011;50516;52.272;5.136;2022-09-30T09:51:47;9.65;;;7.10;;
64199;SDS011;50516;52.272;5.136;2022-09-30T09:54:22;9.38;;;7.32;;
64199;SDS011;50516;52.272;5.136;2022-09-30T09:56:52;8.70;;;7.30;;
64199;SDS011;50516;52.272;5.136;2022-09-30T09:59:18;11.25;;;6.85;;
64199;SDS011;50516;52.272;5.136;2022-09-30T10:01:48;10.75;;;7.25;;
64199;SDS011;50516;52.272;5.136;2022-09-30T10:06:49;10.63;;;6.50;;
64199;SDS011;50516;52.272;5.136;2022-09-30T10:14:35;9.60;;;6.10;;
64199;SDS011;50516;52.272;5.136;2022-09-30T10:17:16;7.95;;;5.70;;
64199;SDS011;50516;52.272;5.136;2022-09-30T10:19:57;7.72;;;5.13;;
64199;SDS011;50516;52.272;5.136;2022-09-30T10:22:29;7.45;;;5.45;;
64199;SDS011;50516;52.272;5.136;2022-09-30T10:33:24;5.50;;;3.85;;
64199;SDS011;50516;52.272;5.136;2022-09-30T10:38:24;7.55;;;4.50;;
64199;SDS011;50516;52.272;5.136;2022-09-30T10:40:53;7.65;;;4.75;;
64199;SDS011;50516;52.272;5.136;2022-09-30T10:43:24;5.50;;;4.55;;
64199;SDS011;50516;52.272;5.136;2022-09-30T10:45:54;9.13;;;3.72;;
64199;SDS011;50516;52.272;5.136;2022-09-30T10:48:21;4.75;;;3.65;;
64199;SDS011;50516;52.272;5.136;2022-09-30T10:50:49;6.68;;;3.95;;
64199;SDS011;50516;52.272;5.136;2022-09-30T10:53:20;5.30;;;3.25;;
64199;SDS011;50516;52.272;5.136;2022-09-30T10:55:48;6.40;;;3.20;;
64199;SDS011;50516;52.272;5.136;2022-09-30T11:00:51;5.32;;;3.35;;
64199;SDS011;50516;52.272;5.136;2022-09-30T11:03:29;5.10;;;3.13;;
64199;SDS011;50516;52.272;5.136;2022-09-30T11:06:17;5.13;;;3.47;;
64199;SDS011;50516;52.272;5.136;2022-09-30T11:11:52;5.13;;;3.28;;
64199;SDS011;50516;52.272;5.136;2022-09-30T11:14:32;6.50;;;3.42;;
64199;SDS011;50516;52.272;5.136;2022-09-30T11:17:14;5.53;;;2.50;;
64199;SDS011;50516;52.272;5.136;2022-09-30T11:19:50;3.65;;;2.55;;
64199;SDS011;50516;52.272;5.136;2022-09-30T11:25:03;5.53;;;2.45;;
64199;SDS011;50516;52.272;5.136;2022-09-30T11:30:17;8.00;;;2.60;;
64199;SDS011;50516;52.272;5.136;2022-09-30T11:38:46;5.63;;;2.80;;
64199;SDS011;50516;52.272;5.136;2022-09-30T11:55:44;1.73;;;1.35;;
64199;SDS011;50516;52.272;5.136;2022-09-30T11:58:31;2.97;;;1.52;;
64199;SDS011;50516;52.272;5.136;2022-09-30T12:06:45;3.83;;;2.13;;
64199;SDS011;50516;52.272;5.136;2022-09-30T12:09:30;2.10;;;1.90;;
64199;SDS011;50516;52.272;5.136;2022-09-30T12:17:36;2.30;;;1.60;;
64199;SDS011;50516;52.272;5.136;2022-09-30T12:20:16;2.97;;;2.15;;
64199;SDS011;50516;52.272;5.136;2022-09-30T12:22:50;2.70;;;2.30;;
64199;SDS011;50516;52.272;5.136;2022-09-30T12:25:21;3.83;;;2.05;;
64199;SDS011;50516;52.272;5.136;2022-09-30T12:27:53;4.28;;;2.40;;
64199;SDS011;50516;52.272;5.136;2022-09-30T12:30:24;7.10;;;2.05;;
64199;SDS011;50516;52.272;5.136;2022-09-30T12:40:50;6.15;;;2.72;;
64199;SDS011;50516;52.272;5.136;2022-09-30T12:49:32;5.38;;;2.30;;
64199;SDS011;50516;52.272;5.136;2022-09-30T12:52:03;4.30;;;2.60;;
64199;SDS011;50516;52.272;5.136;2022-09-30T12:54:35;7.70;;;2.78;;
64199;SDS011;50516;52.272;5.136;2022-09-30T12:57:05;8.73;;;2.55;;
64199;SDS011;50516;52.272;5.136;2022-09-30T12:59:33;9.82;;;2.50;;
64199;SDS011;50516;52.272;5.136;2022-09-30T13:02:02;5.05;;;2.40;;
64199;SDS011;50516;52.272;5.136;2022-09-30T13:04:34;5.38;;;3.00;;
64199;SDS011;50516;52.272;5.136;2022-09-30T13:09:33;7.00;;;3.25;;
64199;SDS011;50516;52.272;5.136;2022-09-30T13:14:38;7.47;;;3.67;;
64199;SDS011;50516;52.272;5.136;2022-09-30T13:19:41;7.07;;;3.45;;
64199;SDS011;50516;52.272;5.136;2022-09-30T13:25:03;9.23;;;4.60;;
64199;SDS011;50516;52.272;5.136;2022-09-30T13:29:58;5.47;;;3.72;;
64199;SDS011;50516;52.272;5.136;2022-09-30T13:32:40;6.68;;;4.25;;
64199;SDS011;50516;52.272;5.136;2022-09-30T13:43:25;4.80;;;3.08;;
64199;SDS011;50516;52.272;5.136;2022-09-30T13:46:21;5.78;;;3.25;;
64199;SDS011;50516;52.272;5.136;2022-09-30T13:48:50;5.68;;;3.15;;
64199;SDS011;50516;52.272;5.136;2022-09-30T13:51:21;9.80;;;3.22;;
64199;SDS011;50516;52.272;5.136;2022-09-30T13:53:51;4.95;;;3.03;;
64199;SDS011;50516;52.272;5.136;2022-09-30T13:56:29;6.80;;;3.30;;
64199;SDS011;50516;52.272;5.136;2022-09-30T14:04:49;8.77;;;3.47;;
64199;SDS011;50516;52.272;5.136;2022-09-30T14:07:31;4.70;;;2.97;;
64199;SDS011;50516;52.272;5.136;2022-09-30T14:21:47;5.00;;;2.90;;
64199;SDS011;50516;52.272;5.136;2022-09-30T14:24:25;5.53;;;3.50;;
64199;SDS011;50516;52.272;5.136;2022-09-30T14:32:19;8.85;;;3.65;;
64199;SDS011;50516;52.272;5.136;2022-09-30T14:34:50;7.10;;;3.92;;
64199;SDS011;50516;52.272;5.136;2022-09-30T14:37:22;10.25;;;4.13;;
64199;SDS011;50516;52.272;5.136;2022-09-30T14:39:52;7.32;;;3.97;;
64199;SDS011;50516;52.272;5.136;2022-09-30T14:42:21;9.77;;;3.42;;
64199;SDS011;50516;52.272;5.136;2022-09-30T14:44:53;5.30;;;3.63;;
64199;SDS011;50516;52.272;5.136;2022-09-30T14:47:21;7.35;;;3.78;;
64199;SDS011;50516;52.272;5.136;2022-09-30T14:49:47;7.28;;;4.13;;
64199;SDS011;50516;52.272;5.136;2022-09-30T14:52:33;5.22;;;3.83;;
64199;SDS011;50516;52.272;5.136;2022-09-30T14:55:00;7.18;;;3.88;;
64199;SDS011;50516;52.272;5.136;2022-09-30T14:57:25;8.30;;;3.88;;
64199;SDS011;50516;52.272;5.136;2022-09-30T14:59:52;6.35;;;3.55;;
64199;SDS011;50516;52.272;5.136;2022-09-30T15:03:03;8.80;;;4.43;;
64199;SDS011;50516;52.272;5.136;2022-09-30T15:05:35;5.85;;;3.47;;
64199;SDS011;50516;52.272;5.136;2022-09-30T15:08:01;7.85;;;4.18;;
64199;SDS011;50516;52.272;5.136;2022-09-30T15:10:26;7.63;;;3.80;;
64199;SDS011;50516;52.272;5.136;2022-09-30T15:12:53;6.63;;;3.60;;
64199;SDS011;50516;52.272;5.136;2022-09-30T15:15:24;6.18;;;3.65;;
64199;SDS011;50516;52.272;5.136;2022-09-30T15:17:56;7.70;;;3.78;;
64199;SDS011;50516;52.272;5.136;2022-09-30T15:22:53;7.55;;;4.20;;
64199;SDS011;50516;52.272;5.136;2022-09-30T15:25:19;6.55;;;3.53;;
64199;SDS011;50516;52.272;5.136;2022-09-30T15:27:46;6.22;;;5.00;;
64199;SDS011;50516;52.272;5.136;2022-09-30T15:32:39;10.95;;;5.43;;
64199;SDS011;50516;52.272;5.136;2022-09-30T15:35:14;7.00;;;4.80;;
64199;SDS011;50516;52.272;5.136;2022-09-30T15:37:43;9.65;;;5.05;;
64199;SDS011;50516;52.272;5.136;2022-09-30T15:40:19;9.57;;;4.50;;
64199;SDS011;50516;52.272;5.136;2022-09-30T15:43:07;8.02;;;4.95;;
64199;SDS011;50516;52.272;5.136;2022-09-30T15:45:36;9.38;;;4.90;;
64199;SDS011;50516;52.272;5.136;2022-09-30T15:48:04;9.02;;;4.55;;
64199;SDS011;50516;52.272;5.136;2022-09-30T15:50:50;6.97;;;4.55;;
64199;SDS011;50516;52.272;5.136;2022-09-30T15:53:20;7.13;;;4.60;;
64199;SDS011;50516;52.272;5.136;2022-09-30T15:58:41;9.27;;;5.45;;
64199;SDS011;50516;52.272;5.136;2022-09-30T16:06:24;10.18;;;4.85;;
64199;SDS011;50516;52.272;5.136;2022-09-30T16:08:56;9.77;;;4.93;;
64199;SDS011;50516;52.272;5.136;2022-09-30T16:11:26;7.90;;;5.10;;
64199;SDS011;50516;52.272;5.136;2022-09-30T16:13:54;6.40;;;4.60;;
64199;SDS011;50516;52.272;5.136;2022-09-30T16:16:25;8.57;;;5.18;;
64199;SDS011;50516;52.272;5.136;2022-09-30T16:18:53;9.65;;;5.18;;
64199;SDS011;50516;52.272;5.136;2022-09-30T16:26:45;7.40;;;5.00;;
64199;SDS011;50516;52.272;5.136;2022-09-30T16:29:11;10.25;;;5.32;;
64199;SDS011;50516;52.272;5.136;2022-09-30T16:31:37;7.13;;;4.55;;
64199;SDS011;50516;52.272;5.136;2022-09-30T16:34:02;6.47;;;4.38;;
64199;SDS011;50516;52.272;5.136;2022-09-30T16:36:28;9.35;;;5.15;;
64199;SDS011;50516;52.272;5.136;2022-09-30T16:38:53;7.93;;;4.85;;
64199;SDS011;50516;52.272;5.136;2022-09-30T16:41:19;13.27;;;4.88;;
64199;SDS011;50516;52.272;5.136;2022-09-30T16:43:44;6.07;;;4.15;;
64199;SDS011;50516;52.272;5.136;2022-09-30T16:46:09;11.15;;;4.72;;
64199;SDS011;50516;52.272;5.136;2022-09-30T16:48:35;9.15;;;4.60;;
64199;SDS011;50516;52.272;5.136;2022-09-30T16:53:41;10.32;;;4.88;;
64199;SDS011;50516;52.272;5.136;2022-09-30T16:56:17;7.75;;;4.50;;
64199;SDS011;50516;52.272;5.136;2022-09-30T16:58:44;9.25;;;5.03;;
64199;SDS011;50516;52.272;5.136;2022-09-30T17:01:17;8.00;;;4.35;;
64199;SDS011;50516;52.272;5.136;2022-09-30T17:03:44;9.75;;;4.63;;
64199;SDS011;50516;52.272;5.136;2022-09-30T17:06:10;7.05;;;4.90;;
64199;SDS011;50516;52.272;5.136;2022-09-30T17:08:36;6.57;;;4.68;;
64199;SDS011;50516;52.272;5.136;2022-09-30T17:11:02;9.02;;;4.95;;
64199;SDS011;50516;52.272;5.136;2022-09-30T17:13:27;10.23;;;5.35;;
64199;SDS011;50516;52.272;5.136;2022-09-30T17:15:53;7.63;;;4.72;;
64199;SDS011;50516;52.272;5.136;2022-09-30T17:18:19;7.63;;;4.30;;
64199;SDS011;50516;52.272;5.136;2022-09-30T17:20:45;13.15;;;4.32;;
64199;SDS011;50516;52.272;5.136;2022-09-30T17:23:16;9.73;;;5.45;;
64199;SDS011;50516;52.272;5.136;2022-09-30T17:25:42;9.90;;;4.60;;
64199;SDS011;50516;52.272;5.136;2022-09-30T17:28:10;7.63;;;4.40;;
64199;SDS011;50516;52.272;5.136;2022-09-30T17:30:37;8.63;;;5.28;;
64199;SDS011;50516;52.272;5.136;2022-09-30T17:33:05;7.95;;;5.35;;
64199;SDS011;50516;52.272;5.136;2022-09-30T17:35:31;8.02;;;5.20;;
64199;SDS011;50516;52.272;5.136;2022-09-30T17:37:57;6.60;;;4.82;;
64199;SDS011;50516;52.272;5.136;2022-09-30T17:40:22;7.85;;;4.10;;
64199;SDS011;50516;52.272;5.136;2022-09-30T17:43:06;9.85;;;4.00;;
64199;SDS011;50516;52.272;5.136;2022-09-30T17:45:36;9.75;;;4.78;;
64199;SDS011;50516;52.272;5.136;2022-09-30T17:48:03;14.15;;;7.53;;
64199;SDS011;50516;52.272;5.136;2022-09-30T17:50:31;15.50;;;8.60;;
64199;SDS011;50516;52.272;5.136;2022-09-30T17:52:57;14.63;;;8.60;;
64199;SDS011;50516;52.272;5.136;2022-09-30T17:55:23;9.20;;;5.40;;
64199;SDS011;50516;52.272;5.136;2022-09-30T17:57:48;8.68;;;5.53;;
64199;SDS011;50516;52.272;5.136;2022-09-30T18:00:14;10.48;;;4.95;;
64199;SDS011;50516;52.272;5.136;2022-09-30T18:02:41;9.75;;;5.65;;
64199;SDS011;50516;52.272;5.136;2022-09-30T18:05:08;9.27;;;6.25;;
64199;SDS011;50516;52.272;5.136;2022-09-30T18:07:34;12.02;;;6.07;;
64199;SDS011;50516;52.272;5.136;2022-09-30T18:09:59;12.05;;;6.45;;
64199;SDS011;50516;52.272;5.136;2022-09-30T18:12:25;9.75;;;6.40;;
64199;SDS011;50516;52.272;5.136;2022-09-30T18:14:51;7.70;;;5.43;;
64199;SDS011;50516;52.272;5.136;2022-09-30T18:17:17;9.20;;;5.13;;
64199;SDS011;50516;52.272;5.136;2022-09-30T18:19:43;8.82;;;5.13;;
64199;SDS011;50516;52.272;5.136;2022-09-30T18:22:08;8.18;;;4.75;;
64199;SDS011;50516;52.272;5.136;2022-09-30T18:24:33;7.28;;;4.90;;
64199;SDS011;50516;52.272;5.136;2022-09-30T18:27:17;6.85;;;4.53;;
64199;SDS011;50516;52.272;5.136;2022-09-30T18:29:46;7.65;;;4.47;;
64199;SDS011;50516;52.272;5.136;2022-09-30T18:32:11;7.35;;;4.47;;
64199;SDS011;50516;52.272;5.136;2022-09-30T18:34:37;11.77;;;5.07;;
64199;SDS011;50516;52.272;5.136;2022-09-30T18:37:02;9.60;;;4.50;;
64199;SDS011;50516;52.272;5.136;2022-09-30T18:39:30;12.20;;;6.03;;
64199;SDS011;50516;52.272;5.136;2022-09-30T18:41:56;7.55;;;5.32;;
64199;SDS011;50516;52.272;5.136;2022-09-30T18:44:21;9.80;;;5.38;;